Nearby METAR Reports


 

CYOO - Oshawa, Municipal Airport, Ontario, Canada
Distance from station: NW 3.2km
Updated: 15/10/2021 15:00
Overcast
Overcast
 Wind from S
Wind: S 7 km/h
Temperature: 20°C
Dew Point: 15°C
Humidity: 73%
Barometer: 1009.8 hPa
Clouds: Overcast
Visibility: 14 km
Cloud details: Overcast 3048 m
2021/10/15 19:00 CYOO 151900Z AUTO 18004KT 9SM OVC100 20/15 A2982 RMK SLP100 DENSITY ALT 1300FT
CYKZ - Toronto, Buttonville, Municipal Airport, Ontario, Canada
Distance from station: W 39.75km
Updated: 03/01/2019 04:00
NOT Current
Partly cloudy
Partly cloudy
 Wind from WSW
Wind: WSW 7 km/h
Temperature: -3°C
Wind Chill: -6°C
Dew Point: -5°C
Humidity: 86%
Barometer: 1010.8 hPa
Clouds: Partly cloudy
Visibility: 24 km
Cloud details: Partly cloudy 1219 m
2019/01/03 09:00 CYKZ 030900Z 25004KT 15SM SCT040 M03/M05 A2985 RMK SC3 LAST STFD OBS FAREWELL SLP118
 
CXTO - Toronto City, Buttonville, Ontario, Canada
Distance from station: WSW 49km
Updated: 15/10/2021 15:00

 
Temperature: 19°C
Dew Point: 14°C
Humidity: 73%
2021/10/15 19:00 CXTO 151900Z AUTO 19/14 RMK AO1 SLP100 T01920141 58019
CYTZ - Toronto City, Island Airport, Ontario, Canada
Distance from station: SW 51.7km
Updated: 15/10/2021 15:00
Overcast
Overcast
 Wind from S
Wind: S 7 km/h
Temperature: 18°C
Dew Point: 16°C
Humidity: 88%
Barometer: 1009.5 hPa
Clouds: Overcast
Visibility: 14 km
Cloud details: Overcast 2926 m
2021/10/15 19:00 CYTZ 151900Z AUTO 17004KT 9SM OVC096 18/16 A2981 RMK SLP098 DENSITY ALT 900FT
 
CYPQ - Toronto, Peterborough Airport, Ontario, Canada
Distance from station: NE 54km
Updated: 15/10/2021 15:00
Mostly cloudy
Mostly cloudy
 Wind from varies
Wind: varies 4 km/h
Temperature: 20°C
Dew Point: 14°C
Humidity: 69%
Barometer: 1010.2 hPa
Clouds: Mostly cloudy
Visibility: 14 km
Cloud details: Mostly cloudy 3353 m
Mostly cloudy 3962 m
2021/10/15 19:00 CYPQ 151900Z AUTO VRB02KT 9SM BKN110 BKN130 20/14 A2983 RMK SLP101 DENSITY ALT 1500FT
CWNC - Cobourg, (mars), Ontario, Canada
Distance from station: E 57km
Updated: 15/10/2021 15:00

 Wind from W
Wind: W 7 km/h
Temperature: 19°C
Dew Point: 16°C
Humidity: 83%
2021/10/15 19:00 CWNC 151900Z AUTO 26004KT 19/16 RMK AO1 SLP102 T01890163 57018
 
CYYZ - Toronto, Lester Pearson Airport, Ontario, Canada
Distance from station: W 65.5km
Updated: 15/10/2021 15:16
Light rain, Showers, Overcast
Light rain, Showers, Overcast
 Wind from SSE
Wind: SSE 6 km/h
Temperature: 19°C
Dew Point: 13°C
Humidity: 68%
Barometer: 1009.8 hPa
Summary: Light rain, Showers
Clouds: Overcast
Visibility: 24 km
Cloud details: Few Clouds 1981 m
Mostly cloudy 2591 m
Overcast 7620 m
2021/10/15 19:16 CYYZ 151916Z 15003KT 15SM -SHRA FEW065 BKN085 OVC250 19/13 A2982 RMK CU2AC5CI1 SLP098 DENSITY ALT 1300FT
CWGL - Lagoon City, Ontario, Canada
Distance from station: NNW 74km
Updated: 15/10/2021 15:00

 Wind from S
Wind: S 7 km/h
Temperature: 17°C
Dew Point: 12°C
Humidity: 73%
2021/10/15 19:00 CWGL 151900Z AUTO 19004KT 17/12 RMK AO1 SLP088 T01680115 58016
 
CWWZ - Port Weller Airport, Ontario, Canada
Distance from station: SSW 77km
Updated: 15/10/2021 15:00

 Wind from NNW
Wind: NNW 2 km/h
Temperature: 19°C
Dew Point: 16°C
Humidity: 83%
2021/10/15 19:00 CWWZ 151900Z AUTO 33001KT 19/16 RMK AO1 SLP105 T01900161 57020
CYSN - St.Catharines Niagara Airport, Ontario, Canada
Distance from station: SSW 81km
Updated: 15/10/2021 15:00
Overcast
Overcast
 Wind from NNW
Wind: NNW 6 km/h
Temperature: 19°C
Dew Point: 17°C
Humidity: 88%
Barometer: 1009.8 hPa
Clouds: Overcast
Visibility: 24 km
Cloud details: Overcast 792 m
2021/10/15 19:00 CYSN 151900Z 33003KT 290V010 15SM OVC026 19/17 A2982 RMK SC8 CIG RAG SLP099 DENSITY ALT 1000FT
This data is offered only as a general guide to local weather conditions. It should not be relied upon in lieu of officially disseminated weather information for determining possible risk to persons or property. This site, including all information contained therein, is made available as is without warranties of any kind, either express or implied. The Vicarage Weather Feed© includes links to other sites for user convenience only. The content of any linked third-party site is not controlled by The Vicarage Weather Feed©. Access to any third-party website through The Vicarage Weather Feed©, regardless of whether or not the third-party site is a linked site, is entirely at the users own risk. Externally sourced content or material is excluded from The Vicarage Weather Feed© copyright and is the copyright and property of the respective provider. Skywarn® and the Skywarn® logo are registered trademarks of the National Oceanic and Atmospheric Administration, used with permission.